Monte — V2FS2 — position and weather

sailwx.info

Track history (hours):
 
Tides and Currents Weather Stations Pressure Air Temp Water Temp Dewpoint Dewpoint Depression Visibility Wind Speed Wind Dir Waves Ship Positions

Monte

Last reported at 2015-Aug-29 18:34 UTC. Time now 2015-Aug-29 18:58 UTC.
Position N 46°26' W 002°04'.

Length 104 m; draft 6.1 m.

Type: Cargo ship. MMSI: 305777000.

Date/timePositionNaut miles runAvg speedWind from/ knotsBaromVisibWave heightAir tempDewpointWater temp
2015-Aug-29 18:34N 46°26' W 002°04'1010.4
2015-Aug-29 17:34N 46°20' W 001°52'10 9.9
2015-Aug-29 16:33N 46°14' W 001°40'10 9.8
2015-Aug-29 15:34N 46°09' W 001°28'9 8.8
2015-Aug-29 14:34N 46°07' W 001°15'3 2.7
2015-Aug-29 13:30N 46°09' W 001°13'0 0.0
2015-Aug-29 12:33N 46°09' W 001°13'0 0.0
2015-Aug-29 11:33N 46°09' W 001°13'0 0.0
2015-Aug-29 10:33N 46°09' W 001°13'0 0.0
2015-Aug-29 09:33N 46°09' W 001°13'0 0.0
2015-Aug-29 08:33N 46°09' W 001°13'0 0.0
2015-Aug-29 07:33N 46°09' W 001°13'0 0.0
2015-Aug-29 06:33N 46°09' W 001°13'0 0.0
2015-Aug-29 05:33N 46°09' W 001°13'0 0.0
2015-Aug-29 04:33N 46°09' W 001°13'0 0.0
2015-Aug-29 03:33N 46°09' W 001°13'0 0.0
2015-Aug-29 02:33N 46°09' W 001°13'0 0.0
2015-Aug-29 01:33N 46°09' W 001°13'0 0.0
2015-Aug-29 00:33N 46°09' W 001°13'0 0.0
2015-Aug-28 23:30N 46°09' W 001°13'0 0.0
2015-Aug-28 22:33N 46°09' W 001°13'0 0.0
2015-Aug-28 21:32N 46°09' W 001°13'0 0.0
2015-Aug-28 20:32N 46°09' W 001°13'0 0.0
2015-Aug-28 19:29N 46°09' W 001°13'0 0.0
2015-Aug-28 18:32N 46°09' W 001°13'0 0.0
2015-Aug-28 17:32N 46°09' W 001°13'0 0.0
2015-Aug-28 16:32N 46°09' W 001°13'0 0.0
2015-Aug-28 15:32N 46°09' W 001°13'0 0.0
2015-Aug-28 14:32N 46°09' W 001°13'0 0.0
2015-Aug-28 13:32N 46°09' W 001°13'0 0.0
2015-Aug-28 12:32N 46°09' W 001°13'0 0.0
2015-Aug-28 11:32N 46°09' W 001°13'0 0.0
2015-Aug-28 10:32N 46°09' W 001°13'0 0.0
2015-Aug-28 09:32N 46°09' W 001°13'0 0.0
2015-Aug-28 08:32N 46°09' W 001°13'0 0.0
2015-Aug-28 07:32N 46°09' W 001°13'0 0.0
2015-Aug-28 06:32N 46°09' W 001°13'0 0.0
2015-Aug-28 05:32N 46°09' W 001°13'0 0.0
2015-Aug-28 04:29N 46°09' W 001°13'0 0.0
2015-Aug-28 03:32N 46°09' W 001°13'0 0.0
2015-Aug-28 02:32N 46°09' W 001°13'0 0.0
2015-Aug-28 01:32N 46°09' W 001°13'0 0.0
2015-Aug-28 00:32N 46°09' W 001°13'0 0.0
2015-Aug-27 23:32N 46°09' W 001°13'0 0.0
2015-Aug-27 22:32N 46°09' W 001°13'0 0.1
2015-Aug-27 21:32N 46°10' W 001°13'0 0.1
2015-Aug-27 20:32N 46°09' W 001°13'0 0.0
2015-Aug-27 19:32N 46°09' W 001°13'0 0.0
2015-Aug-27 18:32N 46°09' W 001°13'0 0.0
2015-Aug-27 17:29N 46°09' W 001°13'0 0.0
2015-Aug-27 16:32N 46°09' W 001°13'0 0.0
2015-Aug-27 15:32N 46°09' W 001°13'0 0.0
2015-Aug-27 14:32N 46°09' W 001°13'0 0.0
2015-Aug-27 13:32N 46°09' W 001°13'0 0.0
2015-Aug-27 12:32N 46°09' W 001°13'3 3.1
2015-Aug-27 11:33N 46°07' W 001°15'3 2.9
2015-Aug-27 10:31N 46°04' W 001°13'0 0.0
2015-Aug-27 09:31N 46°04' W 001°13'0 0.0
2015-Aug-27 08:31N 46°04' W 001°13'0 0.1
2015-Aug-27 07:32N 46°04' W 001°14'8 8.2
2015-Aug-27 06:33N 46°06' W 001°25'18 9.1
2015-Aug-27 04:33N 46°13' W 001°49'12 9.3
2015-Aug-27 03:19N 46°21' W 002°01'11 9.8
2015-Aug-27 02:14N 46°29' W 002°12'710.2
2015-Aug-27 01:30N 46°34' W 002°19'33 9.9
2015-Aug-26 22:07N 46°58' W 002°53'1810.4
2015-Aug-26 20:24N 47°10' W 003°12'2010.8
2015-Aug-26 18:33N 47°22' W 003°36'1310.7
2015-Aug-26 17:23N 47°29' W 003°51'910.7
2015-Aug-26 16:30N 47°33' W 004°03'356 7.8
2015-Aug-24 19:11N 53°29' W 004°25'911.7
2015-Aug-24 18:27N 53°30' W 004°11'1011.2
2015-Aug-24 17:33N 53°32' W 003°55'1110.5
2015-Aug-24 16:33N 53°33' W 003°37'1010.3
2015-Aug-24 15:33N 53°32' W 003°20'9 9.0
2015-Aug-24 14:33N 53°30' W 003°05'3 3.3
2015-Aug-24 13:31N 53°27' W 003°01'0 0.2
2015-Aug-24 12:31N 53°27' W 003°01'0 0.0
2015-Aug-24 11:31N 53°27' W 003°01'0 0.0
2015-Aug-24 10:28N 53°27' W 003°01'0 0.0
2015-Aug-24 09:31N 53°27' W 003°01'0 0.0
2015-Aug-24 08:28N 53°27' W 003°01'0 0.0
2015-Aug-24 07:31N 53°27' W 003°01'0 0.0
2015-Aug-24 06:31N 53°27' W 003°01'0 0.0
2015-Aug-24 05:31N 53°27' W 003°01'0 0.0
2015-Aug-24 04:25N 53°27' W 003°01'0 0.0
2015-Aug-24 03:31N 53°27' W 003°01'0 0.0
2015-Aug-24 02:31N 53°27' W 003°01'0 0.0
2015-Aug-24 01:31N 53°27' W 003°01'0 0.0
2015-Aug-24 00:31N 53°27' W 003°01'0 0.0
2015-Aug-23 23:31N 53°27' W 003°01'0 0.0
2015-Aug-23 22:31N 53°27' W 003°01'0 0.0
2015-Aug-23 21:31N 53°27' W 003°01'0 0.0
2015-Aug-23 20:28N 53°27' W 003°01'0 0.0
2015-Aug-23 19:31N 53°27' W 003°01'0 0.0
2015-Aug-23 18:31N 53°27' W 003°01'0 0.0
2015-Aug-23 17:31N 53°27' W 003°01'0 0.5
2015-Aug-23 16:33N 53°27' W 003°01'1 0.5
2015-Aug-23 15:33N 53°26' W 003°01'9 8.7
2015-Aug-23 14:33N 53°31' W 003°13'8 8.3
2015-Aug-23 13:33N 53°30' W 003°26'1 0.5
2015-Aug-23 12:30N 53°29' W 003°27'0 0.0
2015-Aug-23 11:33N 53°29' W 003°27'0 0.1
2015-Aug-23 10:33N 53°29' W 003°27'0 0.0
2015-Aug-23 09:30N 53°29' W 003°27'0 0.0
2015-Aug-23 08:30N 53°29' W 003°27'0 0.0
2015-Aug-23 07:33N 53°29' W 003°27'0 0.0
2015-Aug-23 06:33N 53°29' W 003°28'0 0.0
2015-Aug-23 05:32N 53°29' W 003°28'0 0.0
2015-Aug-23 04:26N 53°29' W 003°28'0 0.1
2015-Aug-23 03:32N 53°29' W 003°27'0 0.1
2015-Aug-23 02:32N 53°29' W 003°27'0 0.0
2015-Aug-23 01:29N 53°29' W 003°27'0 0.0
2015-Aug-23 00:32N 53°29' W 003°27'0 0.0
2015-Aug-22 23:32N 53°29' W 003°27'0 0.1
2015-Aug-22 22:23N 53°29' W 003°27'0 0.0
2015-Aug-22 21:32N 53°29' W 003°27'0 0.0
2015-Aug-22 20:32N 53°29' W 003°27'0 0.0
2015-Aug-22 19:29N 53°29' W 003°27'0 0.0
2015-Aug-22 18:32N 53°29' W 003°27'0 0.0
2015-Aug-22 17:32N 53°29' W 003°27'0 0.0
2015-Aug-22 16:32N 53°29' W 003°27'0 0.1
2015-Aug-22 15:32N 53°29' W 003°27'0 0.0
2015-Aug-22 14:32N 53°29' W 003°27'0 0.0
2015-Aug-22 13:29N 53°29' W 003°27'0 0.0
2015-Aug-22 12:32N 53°29' W 003°27'0 0.0
2015-Aug-22 11:32N 53°29' W 003°27'0 0.1
2015-Aug-22 10:32N 53°29' W 003°27'0 0.1
2015-Aug-22 09:26N 53°29' W 003°27'0 0.0
2015-Aug-22 08:29N 53°29' W 003°27'0 0.0
2015-Aug-22 07:32N 53°29' W 003°27'0 0.0
2015-Aug-22 06:32N 53°29' W 003°27'0 0.0
2015-Aug-22 05:32N 53°29' W 003°27'0 0.0
2015-Aug-22 04:32N 53°29' W 003°27'0 0.1
2015-Aug-22 03:32N 53°29' W 003°27'0 0.0
2015-Aug-22 02:32N 53°29' W 003°27'0 0.0
2015-Aug-22 01:32N 53°29' W 003°27'0 0.0
2015-Aug-22 00:32N 53°29' W 003°27'0 0.0
2015-Aug-21 23:32N 53°29' W 003°27'0 0.0
2015-Aug-21 22:32N 53°29' W 003°27'0 0.0
2015-Aug-21 21:32N 53°29' W 003°27'0 0.1
2015-Aug-21 20:32N 53°29' W 003°27'0 0.0
2015-Aug-21 19:28N 53°29' W 003°28'0 0.0
2015-Aug-21 18:28N 53°29' W 003°27'0 0.5
2015-Aug-21 17:33N 53°29' W 003°28'9 8.9
2015-Aug-21 16:33N 53°31' W 003°43'118 9.1
2015-Aug-21 03:32N 52°06' W 005°59'  
Track history (hours):
 
Tides and Currents Weather Stations Pressure Air Temp Water Temp Dewpoint Dewpoint Depression Visibility Wind Speed Wind Dir Waves Ship Positions

Monte

Last reported at 2015-Aug-29 18:34 UTC. Time now 2015-Aug-29 18:58 UTC.
Position N 46°26' W 002°04'.

Length 104 m; draft 6.1 m.

Type: Cargo ship. MMSI: 305777000.

Date/timePositionNaut miles runAvg speedWind from/ knotsBaromVisibWave heightAir tempDewpointWater temp
2015-Aug-29 18:34N 46°26' W 002°04'1010.4
2015-Aug-29 17:34N 46°20' W 001°52'10 9.9
2015-Aug-29 16:33N 46°14' W 001°40'10 9.8
2015-Aug-29 15:34N 46°09' W 001°28'9 8.8
2015-Aug-29 14:34N 46°07' W 001°15'3 2.7
2015-Aug-29 13:30N 46°09' W 001°13'0 0.0
2015-Aug-29 12:33N 46°09' W 001°13'0 0.0
2015-Aug-29 11:33N 46°09' W 001°13'0 0.0
2015-Aug-29 10:33N 46°09' W 001°13'0 0.0
2015-Aug-29 09:33N 46°09' W 001°13'0 0.0
2015-Aug-29 08:33N 46°09' W 001°13'0 0.0
2015-Aug-29 07:33N 46°09' W 001°13'0 0.0
2015-Aug-29 06:33N 46°09' W 001°13'0 0.0
2015-Aug-29 05:33N 46°09' W 001°13'0 0.0
2015-Aug-29 04:33N 46°09' W 001°13'0 0.0
2015-Aug-29 03:33N 46°09' W 001°13'0 0.0
2015-Aug-29 02:33N 46°09' W 001°13'0 0.0
2015-Aug-29 01:33N 46°09' W 001°13'0 0.0
2015-Aug-29 00:33N 46°09' W 001°13'0 0.0
2015-Aug-28 23:30N 46°09' W 001°13'0 0.0
2015-Aug-28 22:33N 46°09' W 001°13'0 0.0
2015-Aug-28 21:32N 46°09' W 001°13'0 0.0
2015-Aug-28 20:32N 46°09' W 001°13'0 0.0
2015-Aug-28 19:29N 46°09' W 001°13'0 0.0
2015-Aug-28 18:32N 46°09' W 001°13'0 0.0
2015-Aug-28 17:32N 46°09' W 001°13'0 0.0
2015-Aug-28 16:32N 46°09' W 001°13'0 0.0
2015-Aug-28 15:32N 46°09' W 001°13'0 0.0
2015-Aug-28 14:32N 46°09' W 001°13'0 0.0
2015-Aug-28 13:32N 46°09' W 001°13'0 0.0
2015-Aug-28 12:32N 46°09' W 001°13'0 0.0
2015-Aug-28 11:32N 46°09' W 001°13'0 0.0
2015-Aug-28 10:32N 46°09' W 001°13'0 0.0
2015-Aug-28 09:32N 46°09' W 001°13'0 0.0
2015-Aug-28 08:32N 46°09' W 001°13'0 0.0
2015-Aug-28 07:32N 46°09' W 001°13'0 0.0
2015-Aug-28 06:32N 46°09' W 001°13'0 0.0
2015-Aug-28 05:32N 46°09' W 001°13'0 0.0
2015-Aug-28 04:29N 46°09' W 001°13'0 0.0
2015-Aug-28 03:32N 46°09' W 001°13'0 0.0
2015-Aug-28 02:32N 46°09' W 001°13'0 0.0
2015-Aug-28 01:32N 46°09' W 001°13'0 0.0
2015-Aug-28 00:32N 46°09' W 001°13'0 0.0
2015-Aug-27 23:32N 46°09' W 001°13'0 0.0
2015-Aug-27 22:32N 46°09' W 001°13'0 0.1
2015-Aug-27 21:32N 46°10' W 001°13'0 0.1
2015-Aug-27 20:32N 46°09' W 001°13'0 0.0
2015-Aug-27 19:32N 46°09' W 001°13'0 0.0
2015-Aug-27 18:32N 46°09' W 001°13'0 0.0
2015-Aug-27 17:29N 46°09' W 001°13'0 0.0
2015-Aug-27 16:32N 46°09' W 001°13'0 0.0
2015-Aug-27 15:32N 46°09' W 001°13'0 0.0
2015-Aug-27 14:32N 46°09' W 001°13'0 0.0
2015-Aug-27 13:32N 46°09' W 001°13'0 0.0
2015-Aug-27 12:32N 46°09' W 001°13'3 3.1
2015-Aug-27 11:33N 46°07' W 001°15'3 2.9
2015-Aug-27 10:31N 46°04' W 001°13'0 0.0
2015-Aug-27 09:31N 46°04' W 001°13'0 0.0
2015-Aug-27 08:31N 46°04' W 001°13'0 0.1
2015-Aug-27 07:32N 46°04' W 001°14'8 8.2
2015-Aug-27 06:33N 46°06' W 001°25'18 9.1
2015-Aug-27 04:33N 46°13' W 001°49'12 9.3
2015-Aug-27 03:19N 46°21' W 002°01'11 9.8
2015-Aug-27 02:14N 46°29' W 002°12'710.2
2015-Aug-27 01:30N 46°34' W 002°19'33 9.9
2015-Aug-26 22:07N 46°58' W 002°53'1810.4
2015-Aug-26 20:24N 47°10' W 003°12'2010.8
2015-Aug-26 18:33N 47°22' W 003°36'1310.7
2015-Aug-26 17:23N 47°29' W 003°51'910.7
2015-Aug-26 16:30N 47°33' W 004°03'356 7.8
2015-Aug-24 19:11N 53°29' W 004°25'911.7
2015-Aug-24 18:27N 53°30' W 004°11'1011.2
2015-Aug-24 17:33N 53°32' W 003°55'1110.5
2015-Aug-24 16:33N 53°33' W 003°37'1010.3
2015-Aug-24 15:33N 53°32' W 003°20'9 9.0
2015-Aug-24 14:33N 53°30' W 003°05'3 3.3
2015-Aug-24 13:31N 53°27' W 003°01'0 0.2
2015-Aug-24 12:31N 53°27' W 003°01'0 0.0
2015-Aug-24 11:31N 53°27' W 003°01'0 0.0
2015-Aug-24 10:28N 53°27' W 003°01'0 0.0
2015-Aug-24 09:31N 53°27' W 003°01'0 0.0
2015-Aug-24 08:28N 53°27' W 003°01'0 0.0
2015-Aug-24 07:31N 53°27' W 003°01'0 0.0
2015-Aug-24 06:31N 53°27' W 003°01'0 0.0
2015-Aug-24 05:31N 53°27' W 003°01'0 0.0
2015-Aug-24 04:25N 53°27' W 003°01'0 0.0
2015-Aug-24 03:31N 53°27' W 003°01'0 0.0
2015-Aug-24 02:31N 53°27' W 003°01'0 0.0
2015-Aug-24 01:31N 53°27' W 003°01'0 0.0
2015-Aug-24 00:31N 53°27' W 003°01'0 0.0
2015-Aug-23 23:31N 53°27' W 003°01'0 0.0
2015-Aug-23 22:31N 53°27' W 003°01'0 0.0
2015-Aug-23 21:31N 53°27' W 003°01'0 0.0
2015-Aug-23 20:28N 53°27' W 003°01'0 0.0
2015-Aug-23 19:31N 53°27' W 003°01'0 0.0
2015-Aug-23 18:31N 53°27' W 003°01'0 0.0
2015-Aug-23 17:31N 53°27' W 003°01'0 0.5
2015-Aug-23 16:33N 53°27' W 003°01'1 0.5
2015-Aug-23 15:33N 53°26' W 003°01'9 8.7
2015-Aug-23 14:33N 53°31' W 003°13'8 8.3
2015-Aug-23 13:33N 53°30' W 003°26'1 0.5
2015-Aug-23 12:30N 53°29' W 003°27'0 0.0
2015-Aug-23 11:33N 53°29' W 003°27'0 0.1
2015-Aug-23 10:33N 53°29' W 003°27'0 0.0
2015-Aug-23 09:30N 53°29' W 003°27'0 0.0
2015-Aug-23 08:30N 53°29' W 003°27'0 0.0
2015-Aug-23 07:33N 53°29' W 003°27'0 0.0
2015-Aug-23 06:33N 53°29' W 003°28'0 0.0
2015-Aug-23 05:32N 53°29' W 003°28'0 0.0
2015-Aug-23 04:26N 53°29' W 003°28'0 0.1
2015-Aug-23 03:32N 53°29' W 003°27'0 0.1
2015-Aug-23 02:32N 53°29' W 003°27'0 0.0
2015-Aug-23 01:29N 53°29' W 003°27'0 0.0
2015-Aug-23 00:32N 53°29' W 003°27'0 0.0
2015-Aug-22 23:32N 53°29' W 003°27'0 0.1
2015-Aug-22 22:23N 53°29' W 003°27'0 0.0
2015-Aug-22 21:32N 53°29' W 003°27'0 0.0
2015-Aug-22 20:32N 53°29' W 003°27'0 0.0
2015-Aug-22 19:29N 53°29' W 003°27'0 0.0
2015-Aug-22 18:32N 53°29' W 003°27'0 0.0
2015-Aug-22 17:32N 53°29' W 003°27'0 0.0
2015-Aug-22 16:32N 53°29' W 003°27'0 0.1
2015-Aug-22 15:32N 53°29' W 003°27'0 0.0
2015-Aug-22 14:32N 53°29' W 003°27'0 0.0
2015-Aug-22 13:29N 53°29' W 003°27'0 0.0
2015-Aug-22 12:32N 53°29' W 003°27'0 0.0
2015-Aug-22 11:32N 53°29' W 003°27'0 0.1
2015-Aug-22 10:32N 53°29' W 003°27'0 0.1
2015-Aug-22 09:26N 53°29' W 003°27'0 0.0
2015-Aug-22 08:29N 53°29' W 003°27'0 0.0
2015-Aug-22 07:32N 53°29' W 003°27'0 0.0
2015-Aug-22 06:32N 53°29' W 003°27'0 0.0
2015-Aug-22 05:32N 53°29' W 003°27'0 0.0
2015-Aug-22 04:32N 53°29' W 003°27'0 0.1
2015-Aug-22 03:32N 53°29' W 003°27'0 0.0
2015-Aug-22 02:32N 53°29' W 003°27'0 0.0
2015-Aug-22 01:32N 53°29' W 003°27'0 0.0
2015-Aug-22 00:32N 53°29' W 003°27'0 0.0
2015-Aug-21 23:32N 53°29' W 003°27'0 0.0
2015-Aug-21 22:32N 53°29' W 003°27'0 0.0
2015-Aug-21 21:32N 53°29' W 003°27'0 0.1
2015-Aug-21 20:32N 53°29' W 003°27'0 0.0
2015-Aug-21 19:28N 53°29' W 003°28'0 0.0
2015-Aug-21 18:28N 53°29' W 003°27'0 0.5
2015-Aug-21 17:33N 53°29' W 003°28'9 8.9
2015-Aug-21 16:33N 53°31' W 003°43'118 9.1
2015-Aug-21 03:32N 52°06' W 005°59'  

Dump ship's entire track history